createdAt,value
2019-03-22T00:02:13.916Z,76.10
2019-03-22T00:07:22.028Z,76.60
2019-03-22T00:12:30.522Z,76.60
2019-03-22T00:17:37.853Z,77.50
2019-03-22T00:22:48.064Z,77.00
2019-03-22T00:27:56.260Z,77.40
2019-03-22T00:33:04.449Z,77.80
2019-03-22T00:38:12.293Z,77.80
2019-03-22T00:43:20.394Z,78.00
2019-03-22T00:48:28.508Z,77.20
2019-03-22T00:53:36.262Z,77.50
2019-03-22T00:58:44.476Z,77.60
2019-03-22T01:03:51.409Z,75.20
2019-03-22T01:08:59.327Z,73.40
2019-03-22T01:14:07.698Z,72.70
2019-03-22T01:19:15.113Z,72.90
2019-03-22T01:24:22.607Z,71.70
2019-03-22T01:29:30.005Z,70.60
2019-03-22T01:34:37.347Z,70.00
2019-03-22T01:39:45.486Z,69.30
2019-03-22T01:44:54.267Z,69.20
2019-03-22T01:50:02.217Z,69.10
2019-03-22T01:55:09.725Z,68.50
2019-03-22T02:00:19.001Z,68.40
2019-03-22T02:05:28.605Z,68.20
2019-03-22T02:10:35.999Z,68.50
2019-03-22T02:15:43.578Z,67.50
2019-03-22T02:20:50.720Z,68.70
2019-03-22T02:25:58.871Z,67.40
2019-03-22T02:31:07.350Z,67.80
2019-03-22T02:36:15.803Z,66.20
2019-03-22T02:41:23.318Z,66.10
2019-03-22T02:46:30.424Z,66.10
2019-03-22T02:51:38.621Z,64.80
2019-03-22T02:56:47.274Z,65.50
2019-03-22T03:01:54.768Z,63.00
2019-03-22T03:07:09.114Z,62.60
2019-03-22T03:12:16.032Z,61.40
2019-03-22T03:17:23.896Z,59.60
2019-03-22T03:22:36.738Z,60.10
2019-03-22T03:27:44.091Z,59.10
2019-03-22T03:32:51.379Z,61.00
2019-03-22T03:38:00.002Z,59.20
2019-03-22T03:43:07.963Z,58.50
2019-03-22T03:48:17.154Z,59.20
2019-03-22T03:53:25.788Z,59.20
2019-03-22T03:58:53.353Z,57.80
2019-03-22T04:04:00.916Z,55.50
2019-03-22T04:09:09.066Z,55.10
2019-03-22T04:14:21.333Z,54.70
2019-03-22T04:19:29.439Z,55.10
2019-03-22T04:24:37.786Z,54.40
2019-03-22T04:29:45.847Z,54.40
2019-03-22T04:34:54.190Z,52.50
2019-03-22T04:40:01.830Z,53.00
2019-03-22T04:45:09.422Z,52.30
2019-03-22T04:50:17.249Z,51.00
2019-03-22T04:55:24.613Z,49.20
2019-03-22T05:00:31.660Z,49.50
2019-03-22T05:05:39.363Z,48.40
2019-03-22T05:10:47.010Z,47.80
2019-03-22T05:15:55.365Z,47.90
2019-03-22T05:21:03.457Z,47.60
2019-03-22T05:26:10.642Z,46.40
2019-03-22T05:31:20.054Z,48.20
2019-03-22T05:36:28.255Z,46.60
2019-03-22T05:41:37.400Z,46.60
2019-03-22T05:46:45.038Z,46.10
2019-03-22T05:51:52.001Z,46.70
2019-03-22T05:56:59.949Z,47.60
2019-03-22T06:02:07.978Z,47.80
2019-03-22T06:07:15.503Z,46.40
2019-03-22T06:12:23.905Z,47.90
2019-03-22T06:17:32.306Z,48.60
2019-03-22T06:22:41.087Z,47.90
2019-03-22T06:27:48.455Z,47.80
2019-03-22T06:33:01.348Z,47.80
2019-03-22T06:38:09.141Z,47.90
2019-03-22T06:43:16.613Z,47.60
2019-03-22T06:48:24.629Z,47.60
2019-03-22T06:53:43.770Z,45.90
2019-03-22T06:58:51.133Z,45.80
2019-03-22T07:03:59.739Z,47.20
2019-03-22T07:09:08.970Z,47.30
2019-03-22T07:14:16.566Z,47.80
2019-03-22T07:19:24.050Z,46.90
2019-03-22T07:24:30.249Z,47.40
2019-03-22T07:29:35.553Z,47.20
2019-03-22T07:34:41.548Z,46.70
2019-03-22T07:39:47.720Z,46.50
2019-03-22T07:44:54.309Z,46.00
2019-03-22T07:50:00.482Z,46.40
2019-03-22T07:55:06.671Z,46.90
2019-03-22T08:00:12.619Z,45.40
2019-03-22T08:05:17.977Z,46.40
2019-03-22T08:10:24.809Z,47.10
2019-03-22T08:15:31.400Z,47.20
2019-03-22T08:20:38.927Z,47.20
2019-03-22T08:25:45.360Z,47.10
2019-03-22T08:30:51.827Z,47.30
2019-03-22T08:35:59.918Z,47.70
2019-03-22T08:41:07.600Z,47.20
2019-03-22T08:46:13.961Z,46.40
2019-03-22T08:51:20.243Z,45.20
2019-03-22T08:56:26.747Z,47.20
2019-03-22T09:01:33.318Z,47.30
2019-03-22T09:06:39.934Z,47.10
2019-03-22T09:11:46.132Z,46.90
2019-03-22T09:16:52.468Z,46.80
2019-03-22T09:22:07.216Z,47.50
2019-03-22T09:27:13.836Z,47.50
2019-03-22T09:32:21.075Z,44.50
2019-03-22T09:37:27.586Z,46.80
2019-03-22T09:42:34.378Z,47.00
2019-03-22T09:47:43.462Z,47.40
2019-03-22T09:52:49.644Z,47.60
2019-03-22T09:57:55.375Z,47.00
2019-03-22T10:03:01.817Z,46.60
2019-03-22T10:08:07.729Z,48.20
2019-03-22T10:13:14.110Z,49.00
2019-03-22T10:18:19.471Z,49.00
2019-03-22T10:23:25.490Z,48.60
2019-03-22T10:28:31.059Z,48.60
2019-03-22T10:33:37.265Z,48.60
2019-03-22T10:38:43.544Z,48.20
2019-03-22T10:43:49.957Z,48.30
2019-03-22T10:48:56.132Z,48.50
2019-03-22T10:54:01.894Z,48.50
2019-03-22T10:59:11.221Z,48.40
2019-03-22T11:04:17.278Z,48.90
2019-03-22T11:09:23.277Z,49.00
2019-03-22T11:14:29.241Z,49.70
2019-03-22T11:19:35.277Z,48.90
2019-03-22T11:24:41.579Z,48.80
2019-03-22T11:29:47.775Z,48.80
2019-03-22T11:34:54.137Z,49.00
2019-03-22T11:39:59.729Z,49.00
2019-03-22T11:45:05.649Z,49.30
2019-03-22T11:50:12.037Z,49.60
2019-03-22T11:55:18.428Z,49.70
2019-03-22T12:00:25.218Z,49.90
2019-03-22T12:05:39.982Z,50.10
2019-03-22T12:10:39.624Z,50.40
2019-03-22T12:15:44.805Z,51.00
2019-03-22T12:20:51.543Z,51.50
2019-03-22T12:25:57.950Z,51.80
2019-03-22T12:31:04.118Z,51.90
2019-03-22T12:36:10.083Z,52.20
2019-03-22T12:41:17.090Z,52.70
2019-03-22T12:46:23.070Z,52.80
2019-03-22T12:51:29.186Z,52.80
2019-03-22T12:56:35.423Z,53.00
2019-03-22T13:01:41.781Z,53.00
2019-03-22T13:06:48.366Z,52.90
2019-03-22T13:11:54.782Z,52.80
2019-03-22T13:17:00.939Z,52.80
2019-03-22T13:22:07.101Z,53.10
2019-03-22T13:27:12.564Z,53.20
2019-03-22T13:32:19.287Z,53.30
2019-03-22T13:37:25.637Z,53.70
2019-03-22T13:42:31.199Z,53.70
2019-03-22T13:47:37.798Z,53.80
2019-03-22T13:52:44.178Z,53.70
2019-03-22T13:57:52.007Z,53.60
2019-03-22T14:03:03.257Z,53.40
2019-03-22T14:08:05.966Z,53.00
2019-03-22T14:13:12.337Z,52.80
2019-03-22T14:18:18.748Z,52.80
2019-03-22T14:23:25.112Z,52.90
2019-03-22T14:28:31.493Z,53.50
2019-03-22T14:33:37.868Z,53.90
2019-03-22T14:38:44.322Z,54.00
2019-03-22T14:43:50.854Z,53.80
2019-03-22T14:48:56.396Z,53.50
2019-03-22T14:54:02.386Z,52.80
2019-03-22T14:59:08.162Z,52.80
2019-03-22T15:04:14.316Z,52.90
2019-03-22T15:09:20.908Z,53.30
2019-03-22T15:14:26.545Z,53.60
2019-03-22T15:19:32.851Z,53.60
2019-03-22T15:24:38.189Z,53.90
2019-03-22T15:29:43.817Z,54.10
2019-03-22T15:34:52.176Z,54.30
2019-03-22T15:39:59.211Z,54.60
2019-03-22T15:45:06.004Z,54.50
2019-03-22T15:50:12.376Z,54.50
2019-03-22T15:55:18.747Z,55.40
2019-03-22T16:00:23.933Z,56.00
2019-03-22T16:05:30.282Z,56.20
2019-03-22T16:10:36.877Z,56.20
2019-03-22T16:15:42.825Z,56.40
2019-03-22T16:20:49.013Z,56.80
2019-03-22T16:25:55.786Z,56.70
2019-03-22T16:31:02.187Z,56.60
2019-03-22T16:36:07.660Z,56.50
2019-03-22T16:41:13.911Z,56.60
2019-03-22T16:46:20.104Z,57.20
2019-03-22T16:51:25.596Z,57.30
2019-03-22T16:56:32.043Z,57.80
2019-03-22T17:01:38.215Z,57.90
2019-03-22T17:06:44.395Z,58.20
2019-03-22T17:11:50.986Z,59.20
2019-03-22T17:16:57.150Z,61.20
2019-03-22T17:22:02.512Z,62.90
2019-03-22T17:27:08.688Z,63.30
2019-03-22T17:32:14.660Z,62.90
2019-03-22T17:37:21.041Z,62.40
2019-03-22T17:42:27.429Z,62.50
2019-03-22T17:47:34.606Z,62.80
2019-03-22T17:52:42.844Z,63.30
2019-03-22T17:57:49.447Z,63.50
2019-03-22T18:02:59.300Z,64.10
2019-03-22T18:08:04.980Z,65.20
2019-03-22T18:13:10.815Z,64.90
2019-03-22T18:18:17.252Z,64.70
2019-03-22T18:23:23.182Z,64.80
2019-03-22T18:28:29.364Z,64.90
2019-03-22T18:33:36.428Z,65.20
2019-03-22T18:38:42.937Z,65.20
2019-03-22T18:43:49.759Z,65.50
2019-03-22T18:48:55.888Z,65.80
2019-03-22T18:54:02.282Z,65.60
2019-03-22T18:59:08.458Z,65.90
2019-03-22T19:04:14.655Z,65.80
2019-03-22T19:09:21.214Z,66.00
2019-03-22T19:14:27.605Z,66.10
2019-03-22T19:19:33.808Z,66.10
2019-03-22T19:24:40.576Z,66.00
2019-03-22T19:29:45.906Z,65.80
2019-03-22T19:34:54.673Z,65.80
2019-03-22T19:40:00.330Z,66.20
2019-03-22T19:45:06.509Z,67.90
2019-03-22T19:50:13.075Z,67.60
2019-03-22T19:55:19.879Z,67.90
2019-03-22T20:00:25.890Z,68.20
2019-03-22T20:05:31.160Z,68.90
2019-03-22T20:10:36.525Z,69.10
2019-03-22T20:15:43.359Z,71.30
2019-03-22T20:20:49.276Z,73.60
2019-03-22T20:25:56.741Z,73.90
2019-03-22T20:31:02.907Z,74.50
2019-03-22T20:36:09.341Z,74.40
2019-03-22T20:41:14.588Z,74.70
2019-03-22T20:46:20.822Z,74.40
2019-03-22T20:51:27.484Z,74.60
2019-03-22T20:56:34.402Z,74.10
2019-03-22T21:01:39.952Z,73.80
2019-03-22T21:06:46.355Z,74.60
2019-03-22T21:11:52.552Z,75.70
2019-03-22T21:16:58.487Z,75.80
2019-03-22T21:22:04.472Z,76.40
2019-03-22T21:27:15.490Z,77.80
2019-03-22T21:32:18.236Z,77.50
2019-03-22T21:37:24.425Z,77.00
2019-03-22T21:42:29.995Z,76.30
2019-03-22T21:47:36.155Z,76.60
2019-03-22T21:52:42.126Z,76.60
2019-03-22T21:57:48.523Z,76.40
2019-03-22T22:02:54.895Z,76.50
2019-03-22T22:08:00.851Z,76.20
2019-03-22T22:13:07.439Z,76.00
2019-03-22T22:18:14.047Z,76.30
2019-03-22T22:23:20.499Z,75.90
2019-03-22T22:28:27.068Z,75.90
2019-03-22T22:33:33.779Z,76.00
2019-03-22T22:38:39.069Z,76.40
2019-03-22T22:43:45.943Z,76.60
2019-03-22T22:48:52.320Z,76.80
2019-03-22T22:53:58.281Z,77.10
2019-03-22T22:59:05.485Z,76.70
2019-03-22T23:04:11.672Z,76.30
2019-03-22T23:09:18.060Z,76.30
2019-03-22T23:14:23.517Z,76.60
2019-03-22T23:19:30.186Z,76.10
2019-03-22T23:24:37.396Z,76.30
2019-03-22T23:29:44.598Z,76.40
2019-03-22T23:34:58.621Z,76.30
2019-03-22T23:39:57.757Z,76.70
2019-03-22T23:45:03.316Z,77.10
2019-03-22T23:50:08.763Z,78.30
2019-03-22T23:55:15.247Z,82.10
